Time;durP1;ratioP1;P1;durP2;ratioP2;P2;SDS_P1;SDS_P2;PMS_P1;PMS_P2;Temp;Humidity;BMP_temperature;BMP_pressure;BME280_temperature;BME280_humidity;BME280_pressure;Samples;Min_cycle;Max_cycle;Signal;HPM_P1;HPM_P2
2022/09/16 00:01:20;;;;;;;1.40;1.30;;;;;;;;;;5064776;28;20229;-66
2022/09/16 00:03:48;;;;;;;1.70;1.57;;;;;;;;;;5059011;28;20663;-66
2022/09/16 00:06:20;;;;;;;2.47;1.60;;;;;;;;;;5066115;28;20208;-66
2022/09/16 00:08:48;;;;;;;1.80;1.70;;;;;;;;;;5059665;28;20204;-66
2022/09/16 00:11:16;;;;;;;1.60;1.50;;;;;;;;;;5061197;28;20215;-66
2022/09/16 00:13:44;;;;;;;2.53;1.90;;;;;;;;;;5067522;28;20594;-66
2022/09/16 00:16:16;;;;;;;2.10;1.80;;;;;;;;;;5065389;28;20222;-66
2022/09/16 00:18:45;;;;;;;2.80;1.60;;;;;;;;;;5060718;28;20235;-66
2022/09/16 00:21:13;;;;;;;2.67;1.57;;;;;;;;;;5061646;28;20658;-66
2022/09/16 00:23:41;;;;;;;3.57;1.80;;;;;;;;;;5065948;28;20239;-66
2022/09/16 00:26:09;;;;;;;2.27;1.60;;;;;;;;;;5062740;28;20204;-66
2022/09/16 00:28:36;;;;;;;2.10;1.43;;;;;;;;;;5068191;28;20647;-66
2022/09/16 00:31:04;;;;;;;2.80;1.60;;;;;;;;;;5062814;28;20203;-66
2022/09/16 00:33:32;;;;;;;2.23;1.60;;;;;;;;;;5061966;28;20567;-66
2022/09/16 00:36:09;;;;;;;2.00;1.60;;;;;;;;;;5061871;28;20199;-66
2022/09/16 00:38:37;;;;;;;2.60;1.87;;;;;;;;;;5061904;28;20588;-66
2022/09/16 00:41:06;;;;;;;2.20;1.40;;;;;;;;;;5062377;28;20198;-66
2022/09/16 00:43:50;;;;;;;1.40;1.30;;;;;;;;;;5062809;28;20231;-66
2022/09/16 00:46:21;;;;;;;1.83;1.73;;;;;;;;;;5063941;28;20201;-67
2022/09/16 00:48:49;;;;;;;4.73;1.73;;;;;;;;;;5059622;28;20222;-66
2022/09/16 00:51:19;;;;;;;4.10;2.00;;;;;;;;;;5065099;28;20204;-66
2022/09/16 00:53:50;;;;;;;3.07;1.70;;;;;;;;;;5071779;28;20249;-66
2022/09/16 00:56:22;;;;;;;5.37;2.00;;;;;;;;;;5064320;28;20206;-66
2022/09/16 00:58:51;;;;;;;2.10;1.77;;;;;;;;;;5060767;28;20231;-66
2022/09/16 01:01:19;;;;;;;2.33;1.90;;;;;;;;;;5063256;28;20662;-66
2022/09/16 01:03:50;;;;;;;2.80;1.73;;;;;;;;;;5060260;28;20237;-66
2022/09/16 01:06:19;;;;;;;2.63;2.10;;;;;;;;;;5064969;28;20202;-66
2022/09/16 01:08:49;;;;;;;1.97;1.87;;;;;;;;;;5060168;28;20590;-66
2022/09/16 01:11:17;;;;;;;2.00;1.90;;;;;;;;;;5063014;28;20203;-66
2022/09/16 01:13:45;;;;;;;6.47;2.20;;;;;;;;;;5060526;28;20237;-66
2022/09/16 01:16:18;;;;;;;4.27;2.63;;;;;;;;;;5046878;28;20231;-66
2022/09/16 01:18:48;;;;;;;2.73;1.90;;;;;;;;;;5058870;28;20663;-66
2022/09/16 01:21:31;;;;;;;4.07;1.80;;;;;;;;;;5060870;28;20208;-66
2022/09/16 01:24:10;;;;;;;3.90;2.00;;;;;;;;;;5064865;28;20302;-66
2022/09/16 01:27:00;;;;;;;4.80;2.30;;;;;;;;;;5057983;28;20220;-66
2022/09/16 01:29:54;;;;;;;2.90;1.93;;;;;;;;;;5066399;28;20202;-66
2022/09/16 01:32:28;;;;;;;2.53;1.60;;;;;;;;;;5068848;28;20203;-66
2022/09/16 01:35:01;;;;;;;2.10;1.90;;;;;;;;;;5057287;28;20231;-66
2022/09/16 01:37:33;;;;;;;2.17;1.97;;;;;;;;;;5065392;28;20206;-66
2022/09/16 01:40:07;;;;;;;2.40;2.00;;;;;;;;;;5068589;28;20233;-66
2022/09/16 01:42:38;;;;;;;1.77;1.67;;;;;;;;;;5065373;28;20243;-66
2022/09/16 01:45:08;;;;;;;2.50;1.83;;;;;;;;;;5056419;28;20228;-66
2022/09/16 01:47:44;;;;;;;2.03;1.67;;;;;;;;;;5068289;28;20220;-66
2022/09/16 01:50:17;;;;;;;2.20;2.00;;;;;;;;;;5055093;28;20209;-66
2022/09/16 01:52:47;;;;;;;2.07;1.77;;;;;;;;;;5053996;28;20207;-66
2022/09/16 01:55:19;;;;;;;5.23;1.90;;;;;;;;;;5053280;28;20690;-66
2022/09/16 01:57:51;;;;;;;2.70;1.50;;;;;;;;;;5045163;28;20206;-66
2022/09/16 02:00:19;;;;;;;2.00;1.80;;;;;;;;;;5054695;28;20220;-66
2022/09/16 02:02:50;;;;;;;2.40;1.57;;;;;;;;;;5069750;28;20214;-65
2022/09/16 02:05:20;;;;;;;3.23;2.20;;;;;;;;;;5058865;28;20274;-66
2022/09/16 02:07:51;;;;;;;2.13;1.80;;;;;;;;;;5071072;28;20206;-66
2022/09/16 02:10:21;;;;;;;1.93;1.83;;;;;;;;;;5057961;28;20581;-66
2022/09/16 02:12:50;;;;;;;2.13;1.90;;;;;;;;;;5047691;28;20629;-65
2022/09/16 02:15:21;;;;;;;2.67;1.90;;;;;;;;;;5056661;28;20218;-66
2022/09/16 02:17:52;;;;;;;2.63;1.70;;;;;;;;;;5048553;28;20207;-65
2022/09/16 02:20:23;;;;;;;3.93;1.90;;;;;;;;;;5057191;28;20312;-65
2022/09/16 02:22:54;;;;;;;1.83;1.73;;;;;;;;;;5062556;28;20203;-65
2022/09/16 02:25:23;;;;;;;2.00;1.70;;;;;;;;;;5058002;28;20220;-66
2022/09/16 02:27:51;;;;;;;2.13;1.90;;;;;;;;;;5069923;28;20211;-66
2022/09/16 02:30:20;;;;;;;1.53;1.40;;;;;;;;;;5057381;28;20206;-66
2022/09/16 02:32:51;;;;;;;1.63;1.53;;;;;;;;;;5064542;28;20205;-65
2022/09/16 02:35:20;;;;;;;2.53;1.80;;;;;;;;;;5058078;28;20218;-65
2022/09/16 02:37:50;;;;;;;2.13;1.93;;;;;;;;;;5070344;28;20683;-65
2022/09/16 02:40:20;;;;;;;2.07;1.97;;;;;;;;;;5057249;28;20590;-65
2022/09/16 02:42:48;;;;;;;1.87;1.60;;;;;;;;;;5049360;28;20661;-65
2022/09/16 02:45:16;;;;;;;1.80;1.70;;;;;;;;;;5068787;28;20229;-65
2022/09/16 02:47:47;;;;;;;2.30;1.93;;;;;;;;;;5055671;28;20208;-65
2022/09/16 02:50:19;;;;;;;3.40;2.07;;;;;;;;;;5059240;28;20213;-65
2022/09/16 02:52:50;;;;;;;2.63;1.73;;;;;;;;;;5059738;28;20211;-65
2022/09/16 02:55:23;;;;;;;2.13;1.93;;;;;;;;;;5069789;28;20258;-65
2022/09/16 02:57:51;;;;;;;3.03;1.87;;;;;;;;;;5059574;28;20216;-65
2022/09/16 03:00:19;;;;;;;2.20;2.00;;;;;;;;;;5068274;28;20583;-65
2022/09/16 03:02:47;;;;;;;2.93;1.70;;;;;;;;;;5070488;28;20208;-65
2022/09/16 03:05:16;;;;;;;1.53;1.43;;;;;;;;;;5070049;28;20773;-65
2022/09/16 03:07:44;;;;;;;3.83;1.80;;;;;;;;;;5067415;28;20203;-65
2022/09/16 03:10:13;;;;;;;3.33;1.70;;;;;;;;;;5061363;28;20218;-65
2022/09/16 03:12:55;;;;;;;2.93;1.97;;;;;;;;;;5066476;28;20206;-65
2022/09/16 03:15:46;;;;;;;3.60;2.17;;;;;;;;;;5056633;28;20198;-65
2022/09/16 03:18:22;;;;;;;2.83;1.70;;;;;;;;;;5037278;28;20217;-65
2022/09/16 03:20:56;;;;;;;2.30;2.10;;;;;;;;;;5061459;28;20343;-65
2022/09/16 03:23:32;;;;;;;3.87;2.13;;;;;;;;;;5055947;28;20685;-65
2022/09/16 03:26:02;;;;;;;1.97;1.87;;;;;;;;;;5075407;28;20194;-65
2022/09/16 03:28:33;;;;;;;1.90;1.80;;;;;;;;;;5064060;28;20214;-64
2022/09/16 03:31:07;;;;;;;3.37;2.23;;;;;;;;;;5062285;28;20191;-65
2022/09/16 03:33:37;;;;;;;1.90;1.80;;;;;;;;;;5061997;28;20229;-65
2022/09/16 03:36:08;;;;;;;3.03;1.90;;;;;;;;;;5061584;28;20207;-65
2022/09/16 03:38:37;;;;;;;2.90;2.10;;;;;;;;;;5063667;28;20241;-65
2022/09/16 03:41:06;;;;;;;1.97;1.80;;;;;;;;;;5050660;28;20229;-65
2022/09/16 03:43:35;;;;;;;4.40;1.77;;;;;;;;;;5065688;28;20234;-65
2022/09/16 03:46:03;;;;;;;2.10;1.90;;;;;;;;;;5065853;28;20217;-63
2022/09/16 03:48:34;;;;;;;4.27;2.17;;;;;;;;;;5068370;28;20214;-64
2022/09/16 03:51:02;;;;;;;2.10;1.90;;;;;;;;;;5063469;28;20191;-65
2022/09/16 03:53:32;;;;;;;2.50;2.30;;;;;;;;;;5066054;28;20238;-65
2022/09/16 03:56:00;;;;;;;3.33;2.37;;;;;;;;;;5063815;28;20203;-65
2022/09/16 03:58:28;;;;;;;2.20;2.10;;;;;;;;;;5066709;28;20194;-65
2022/09/16 04:00:59;;;;;;;1.97;1.87;;;;;;;;;;5068182;28;20680;-65
2022/09/16 04:03:27;;;;;;;2.60;2.20;;;;;;;;;;5067027;28;20223;-65
2022/09/16 04:05:59;;;;;;;2.80;1.93;;;;;;;;;;5067876;28;20199;-65
2022/09/16 04:08:27;;;;;;;2.00;1.80;;;;;;;;;;5065617;28;20205;-65
2022/09/16 04:10:58;;;;;;;4.50;2.20;;;;;;;;;;5061670;28;20191;-65
2022/09/16 04:13:26;;;;;;;2.97;1.93;;;;;;;;;;5062697;28;20778;-65
2022/09/16 04:15:54;;;;;;;2.67;1.70;;;;;;;;;;5057749;28;20203;-65
2022/09/16 04:18:22;;;;;;;2.60;1.90;;;;;;;;;;5061702;28;20203;-65
2022/09/16 04:20:50;;;;;;;4.07;2.17;;;;;;;;;;5055648;28;20222;-65
2022/09/16 04:23:18;;;;;;;3.90;1.93;;;;;;;;;;5057822;28;20309;-65
2022/09/16 04:25:53;;;;;;;6.00;5.47;;;;;;;;;;5057953;28;20651;-65
2022/09/16 04:28:22;;;;;;;4.13;3.80;;;;;;;;;;5059109;28;20215;-65
2022/09/16 04:30:50;;;;;;;4.10;2.57;;;;;;;;;;5056550;28;20246;-65
2022/09/16 04:33:19;;;;;;;4.33;2.03;;;;;;;;;;5057807;28;20224;-65
2022/09/16 04:35:47;;;;;;;2.50;2.00;;;;;;;;;;5058751;28;20196;-65
2022/09/16 04:38:15;;;;;;;2.93;1.70;;;;;;;;;;5056640;28;20661;-65
2022/09/16 04:40:42;;;;;;;2.20;1.87;;;;;;;;;;5056641;28;20223;-64
2022/09/16 04:43:10;;;;;;;2.30;2.10;;;;;;;;;;5054888;28;20203;-65
2022/09/16 04:45:40;;;;;;;2.57;2.37;;;;;;;;;;5056167;28;20212;-65
2022/09/16 04:48:08;;;;;;;2.67;2.47;;;;;;;;;;5057420;28;20199;-65
2022/09/16 04:50:36;;;;;;;2.97;2.33;;;;;;;;;;5058789;28;20207;-65
2022/09/16 04:53:04;;;;;;;4.83;2.03;;;;;;;;;;5057147;28;20194;-65
2022/09/16 04:55:32;;;;;;;2.23;2.10;;;;;;;;;;5060943;28;20294;-65
2022/09/16 04:58:00;;;;;;;2.27;2.17;;;;;;;;;;5058863;28;20198;-65
2022/09/16 05:00:28;;;;;;;7.90;2.40;;;;;;;;;;5065223;28;20239;-65
2022/09/16 05:02:57;;;;;;;3.03;2.20;;;;;;;;;;5064643;28;20199;-65
2022/09/16 05:05:25;;;;;;;2.73;2.53;;;;;;;;;;5065881;28;20251;-65
2022/09/16 05:07:54;;;;;;;7.53;2.70;;;;;;;;;;5065450;28;20211;-65
2022/09/16 05:10:22;;;;;;;3.97;2.20;;;;;;;;;;5062992;28;20210;-65
2022/09/16 05:12:51;;;;;;;4.67;2.20;;;;;;;;;;5065353;28;20208;-65
2022/09/16 05:15:18;;;;;;;4.37;2.10;;;;;;;;;;5062272;28;20540;-65
2022/09/16 05:17:46;;;;;;;2.43;2.20;;;;;;;;;;5065984;28;20206;-65
2022/09/16 05:20:19;;;;;;;4.90;2.20;;;;;;;;;;5065165;28;20219;-65
2022/09/16 05:22:48;;;;;;;3.43;2.23;;;;;;;;;;5066052;28;20199;-65
2022/09/16 05:25:17;;;;;;;4.57;2.97;;;;;;;;;;5067381;28;20698;-65
2022/09/16 05:27:47;;;;;;;2.37;2.17;;;;;;;;;;5059168;28;20626;-65
2022/09/16 05:30:16;;;;;;;1.83;1.70;;;;;;;;;;5055140;28;20203;-65
2022/09/16 05:32:44;;;;;;;2.07;1.97;;;;;;;;;;5061736;28;20227;-65
2022/09/16 05:35:12;;;;;;;6.70;2.53;;;;;;;;;;5066394;28;20568;-65
2022/09/16 05:37:41;;;;;;;3.63;2.30;;;;;;;;;;5075528;28;20198;-65
2022/09/16 05:40:09;;;;;;;3.00;2.10;;;;;;;;;;5067425;28;20210;-65
2022/09/16 05:42:37;;;;;;;4.93;2.60;;;;;;;;;;5071254;28;20209;-65
2022/09/16 05:45:05;;;;;;;3.20;2.50;;;;;;;;;;5068610;28;20221;-65
2022/09/16 05:47:33;;;;;;;7.23;2.50;;;;;;;;;;5071625;28;20203;-65
2022/09/16 05:50:01;;;;;;;4.33;2.30;;;;;;;;;;5062946;28;20204;-66
2022/09/16 05:52:29;;;;;;;6.83;2.63;;;;;;;;;;5068984;28;20565;-66
2022/09/16 05:54:59;;;;;;;4.30;2.40;;;;;;;;;;5057444;28;20714;-66
2022/09/16 05:57:27;;;;;;;6.63;3.77;;;;;;;;;;5059355;28;20205;-66
2022/09/16 05:59:55;;;;;;;9.83;3.07;;;;;;;;;;5058188;28;20209;-65
2022/09/16 06:02:23;;;;;;;4.43;2.43;;;;;;;;;;5061346;28;20224;-65
2022/09/16 06:04:52;;;;;;;8.40;3.57;;;;;;;;;;5068100;28;20282;-66
2022/09/16 06:07:19;;;;;;;8.33;2.67;;;;;;;;;;5071097;28;20557;-66
2022/09/16 06:09:47;;;;;;;2.40;2.20;;;;;;;;;;5063128;28;20681;-65
2022/09/16 06:12:17;;;;;;;5.60;2.93;;;;;;;;;;5064686;28;20199;-65
2022/09/16 06:14:45;;;;;;;3.03;2.60;;;;;;;;;;5058374;28;20238;-65
2022/09/16 06:17:13;;;;;;;4.17;2.73;;;;;;;;;;5059373;28;20203;-65
2022/09/16 06:19:41;;;;;;;4.43;2.97;;;;;;;;;;5056972;28;20208;-64
2022/09/16 06:22:09;;;;;;;5.83;2.77;;;;;;;;;;5060999;28;20235;-64
2022/09/16 06:24:37;;;;;;;4.33;2.60;;;;;;;;;;5053238;28;20247;-63
2022/09/16 06:27:05;;;;;;;3.87;2.77;;;;;;;;;;5053335;28;20205;-64
2022/09/16 06:29:34;;;;;;;4.83;2.63;;;;;;;;;;5056924;28;20200;-67
2022/09/16 06:32:02;;;;;;;4.83;2.80;;;;;;;;;;5055439;28;20203;-66
2022/09/16 06:34:30;;;;;;;3.50;2.70;;;;;;;;;;5051562;28;20225;-65
2022/09/16 06:36:58;;;;;;;7.17;3.10;;;;;;;;;;5058920;28;20453;-64
2022/09/16 06:39:27;;;;;;;5.13;2.27;;;;;;;;;;5045244;28;20207;-64
2022/09/16 06:41:56;;;;;;;2.83;2.20;;;;;;;;;;5052717;28;20223;-63
2022/09/16 06:44:24;;;;;;;7.00;3.07;;;;;;;;;;5054376;28;20703;-64
2022/09/16 06:46:53;;;;;;;3.93;2.60;;;;;;;;;;5054445;28;20198;-63
2022/09/16 06:49:21;;;;;;;5.20;2.83;;;;;;;;;;5058127;28;20208;-64
2022/09/16 06:51:50;;;;;;;7.30;2.93;;;;;;;;;;5055471;28;20209;-64
2022/09/16 06:54:18;;;;;;;2.83;2.60;;;;;;;;;;5054235;28;20238;-64
2022/09/16 06:56:46;;;;;;;3.83;2.37;;;;;;;;;;5049295;28;20199;-62
2022/09/16 06:59:14;;;;;;;6.17;3.13;;;;;;;;;;5039797;28;20628;-65
2022/09/16 07:01:42;;;;;;;3.20;2.57;;;;;;;;;;5045536;28;20250;-63
2022/09/16 07:04:12;;;;;;;4.23;2.90;;;;;;;;;;5052616;28;20287;-63
2022/09/16 07:06:40;;;;;;;3.57;2.80;;;;;;;;;;5049470;28;20199;-63
2022/09/16 07:09:28;;;;;;;7.57;2.50;;;;;;;;;;5048928;28;20209;-63
2022/09/16 07:11:58;;;;;;;6.23;2.43;;;;;;;;;;5054364;28;20199;-66
2022/09/16 07:14:26;;;;;;;3.23;2.30;;;;;;;;;;5051137;28;20230;-63
2022/09/16 07:16:54;;;;;;;3.63;2.83;;;;;;;;;;5048558;28;20203;-64
2022/09/16 07:19:24;;;;;;;4.43;2.53;;;;;;;;;;5045362;28;20764;-63
2022/09/16 07:21:52;;;;;;;7.60;2.83;;;;;;;;;;5044735;28;20267;-64
2022/09/16 07:24:20;;;;;;;4.97;2.37;;;;;;;;;;5040827;28;20230;-64
2022/09/16 07:26:48;;;;;;;4.50;2.70;;;;;;;;;;5044257;28;20209;-63
2022/09/16 07:29:17;;;;;;;4.20;2.87;;;;;;;;;;5041461;28;20208;-64
2022/09/16 07:31:45;;;;;;;8.03;2.57;;;;;;;;;;5041616;28;20199;-65
2022/09/16 07:34:13;;;;;;;3.23;2.37;;;;;;;;;;5043241;28;20565;-66
2022/09/16 07:36:43;;;;;;;3.00;2.37;;;;;;;;;;5048991;28;20570;-66
2022/09/16 07:39:12;;;;;;;3.80;2.53;;;;;;;;;;5041537;28;20214;-64
2022/09/16 07:41:41;;;;;;;9.63;2.57;;;;;;;;;;5043471;28;20212;-66
2022/09/16 07:44:11;;;;;;;3.30;2.20;;;;;;;;;;5044845;28;20223;-66
2022/09/16 07:46:39;;;;;;;3.70;2.10;;;;;;;;;;5055533;28;20202;-65
2022/09/16 07:49:08;;;;;;;2.80;2.13;;;;;;;;;;5053903;28;20687;-64
2022/09/16 07:51:37;;;;;;;6.23;2.67;;;;;;;;;;5057285;28;20650;-63
2022/09/16 07:54:09;;;;;;;7.03;2.33;;;;;;;;;;5055893;28;20243;-71
2022/09/16 07:56:45;;;;;;;4.13;2.47;;;;;;;;;;5052878;28;20569;-65
2022/09/16 07:59:14;;;;;;;2.73;2.40;;;;;;;;;;5055063;28;20293;-65
2022/09/16 08:01:46;;;;;;;4.60;2.43;;;;;;;;;;5055200;28;20262;-66
2022/09/16 08:04:14;;;;;;;3.97;2.70;;;;;;;;;;5058282;28;20222;-66
2022/09/16 08:06:42;;;;;;;3.77;2.13;;;;;;;;;;5056926;28;20209;-69
2022/09/16 08:09:11;;;;;;;4.60;2.50;;;;;;;;;;5063936;28;20212;-69
2022/09/16 08:11:59;;;;;;;6.00;3.67;;;;;;;;;;5057645;28;20684;-71
2022/09/16 08:14:27;;;;;;;4.17;2.67;;;;;;;;;;5059390;28;20232;-70
2022/09/16 08:16:55;;;;;;;4.03;2.13;;;;;;;;;;5059320;28;20208;-69
2022/09/16 08:19:23;;;;;;;4.47;3.00;;;;;;;;;;5058339;28;20209;-70
2022/09/16 08:21:51;;;;;;;2.20;2.10;;;;;;;;;;5062256;28;20228;-71
2022/09/16 08:24:21;;;;;;;5.30;2.80;;;;;;;;;;5054172;28;20590;-69
2022/09/16 08:26:49;;;;;;;2.60;2.40;;;;;;;;;;5058412;28;20310;-68
2022/09/16 08:29:18;;;;;;;2.47;2.07;;;;;;;;;;5061151;28;20210;-68
2022/09/16 08:31:46;;;;;;;3.30;2.40;;;;;;;;;;5055041;28;20211;-69
2022/09/16 08:34:15;;;;;;;2.17;1.97;;;;;;;;;;5052991;28;20223;-68
2022/09/16 08:36:43;;;;;;;3.70;2.70;;;;;;;;;;5050769;28;20208;-68
2022/09/16 08:39:11;;;;;;;6.03;2.63;;;;;;;;;;5064432;28;20205;-69
2022/09/16 08:41:49;;;;;;;3.87;2.50;;;;;;;;;;5058270;28;20208;-68
2022/09/16 08:44:22;;;;;;;3.10;2.53;;;;;;;;;;5066392;28;20630;-68
2022/09/16 08:46:52;;;;;;;5.83;2.67;;;;;;;;;;5059224;28;20231;-69
2022/09/16 08:49:25;;;;;;;6.23;2.80;;;;;;;;;;5051879;28;20212;-69
2022/09/16 08:51:54;;;;;;;4.37;2.77;;;;;;;;;;5050243;28;20287;-69
2022/09/16 08:54:26;;;;;;;2.70;2.50;;;;;;;;;;5058032;28;20248;-68
2022/09/16 08:56:58;;;;;;;3.70;2.40;;;;;;;;;;5055162;28;20251;-69
2022/09/16 08:59:28;;;;;;;3.00;2.70;;;;;;;;;;5046585;28;20251;-69
2022/09/16 09:01:59;;;;;;;2.53;2.30;;;;;;;;;;5068090;28;20199;-69
2022/09/16 09:04:34;;;;;;;4.53;2.43;;;;;;;;;;5059896;28;20273;-69
2022/09/16 09:07:12;;;;;;;2.70;2.50;;;;;;;;;;5056102;28;20297;-67
2022/09/16 09:09:46;;;;;;;3.20;2.30;;;;;;;;;;5058665;28;20205;-68
2022/09/16 09:12:20;;;;;;;4.33;2.47;;;;;;;;;;5062117;28;20205;-69
2022/09/16 09:14:59;;;;;;;3.30;2.70;;;;;;;;;;5059204;28;20278;-69
2022/09/16 09:17:31;;;;;;;5.53;2.70;;;;;;;;;;5072803;28;20211;-68
2022/09/16 09:20:20;;;;;;;3.03;2.07;;;;;;;;;;5061968;28;20208;-70
2022/09/16 09:22:56;;;;;;;2.83;2.27;;;;;;;;;;5062083;28;20688;-68
2022/09/16 09:25:29;;;;;;;3.97;2.37;;;;;;;;;;5060163;28;20211;-68
2022/09/16 09:28:04;;;;;;;2.70;2.30;;;;;;;;;;5045805;28;20197;-67
2022/09/16 09:30:35;;;;;;;3.87;2.37;;;;;;;;;;5059957;28;20257;-70
2022/09/16 09:33:10;;;;;;;3.07;2.70;;;;;;;;;;5061446;28;20283;-69
2022/09/16 09:36:08;;;;;;;4.33;1.97;;;;;;;;;;5054389;28;20658;-72
2022/09/16 09:38:50;;;;;;;2.10;2.00;;;;;;;;;;5056803;28;20200;-68
2022/09/16 09:41:20;;;;;;;3.53;2.23;;;;;;;;;;5062849;28;20194;-67
2022/09/16 09:43:53;;;;;;;4.80;2.40;;;;;;;;;;5063591;28;20259;-67
2022/09/16 09:46:25;;;;;;;4.27;2.17;;;;;;;;;;5060101;28;20205;-72
2022/09/16 09:48:56;;;;;;;3.87;2.17;;;;;;;;;;5055345;28;20305;-69
2022/09/16 09:51:27;;;;;;;3.53;2.60;;;;;;;;;;5055145;28;20205;-72
2022/09/16 09:53:58;;;;;;;2.67;2.47;;;;;;;;;;5055579;28;20263;-70
2022/09/16 09:56:28;;;;;;;3.27;2.30;;;;;;;;;;5066576;28;20578;-68
2022/09/16 09:59:02;;;;;;;2.87;2.10;;;;;;;;;;5054784;28;20256;-68
2022/09/16 10:01:33;;;;;;;3.00;2.33;;;;;;;;;;5054919;28;20203;-68
2022/09/16 10:04:02;;;;;;;2.50;2.30;;;;;;;;;;5057911;28;20232;-63
2022/09/16 10:06:33;;;;;;;2.40;2.03;;;;;;;;;;5057763;28;20214;-64
2022/09/16 10:09:02;;;;;;;4.00;2.00;;;;;;;;;;5065999;28;20223;-64
2022/09/16 10:11:31;;;;;;;3.50;2.40;;;;;;;;;;5057818;28;20629;-65
2022/09/16 10:14:01;;;;;;;6.00;3.20;;;;;;;;;;5063073;28;20280;-67
2022/09/16 10:16:30;;;;;;;3.77;2.40;;;;;;;;;;5057365;28;20729;-68
2022/09/16 10:19:01;;;;;;;4.70;2.80;;;;;;;;;;5059615;28;20219;-67
2022/09/16 10:21:38;;;;;;;5.27;2.37;;;;;;;;;;5059297;28;20286;-67
2022/09/16 10:24:23;;;;;;;2.37;2.17;;;;;;;;;;5057694;28;20317;-67
2022/09/16 10:26:51;;;;;;;2.50;2.30;;;;;;;;;;5062372;28;20212;-67
2022/09/16 10:29:21;;;;;;;3.53;2.30;;;;;;;;;;5062316;28;20232;-67
2022/09/16 10:31:49;;;;;;;2.33;2.13;;;;;;;;;;5069040;28;20232;-67
2022/09/16 10:34:22;;;;;;;5.57;3.20;;;;;;;;;;5053742;28;20834;-68
2022/09/16 10:36:58;;;;;;;5.33;3.83;;;;;;;;;;5054529;28;20288;-65
2022/09/16 10:39:27;;;;;;;7.60;3.10;;;;;;;;;;5049701;28;20207;-66
2022/09/16 10:41:56;;;;;;;4.33;3.20;;;;;;;;;;5053794;28;20199;-66
2022/09/16 10:44:27;;;;;;;4.40;3.20;;;;;;;;;;5060787;28;20231;-63
2022/09/16 10:46:56;;;;;;;6.30;3.13;;;;;;;;;;5058516;28;20239;-61
2022/09/16 10:49:28;;;;;;;7.83;4.30;;;;;;;;;;5066356;28;20242;-62
2022/09/16 10:52:06;;;;;;;9.77;4.80;;;;;;;;;;5059587;28;20281;-61
2022/09/16 10:54:34;;;;;;;6.70;4.23;;;;;;;;;;5059284;28;20318;-59
2022/09/16 10:57:02;;;;;;;6.23;3.60;;;;;;;;;;5052340;28;20291;-61
2022/09/16 10:59:31;;;;;;;3.43;3.10;;;;;;;;;;5054033;28;20234;-62
2022/09/16 11:02:04;;;;;;;4.90;3.57;;;;;;;;;;5066649;28;20202;-62
2022/09/16 11:04:50;;;;;;;7.00;3.57;;;;;;;;;;5058943;28;20231;-60
2022/09/16 11:07:23;;;;;;;4.13;2.87;;;;;;;;;;5059568;28;20666;-63
2022/09/16 11:09:55;;;;;;;4.33;2.83;;;;;;;;;;5054459;28;20297;-62
2022/09/16 11:12:36;;;;;;;5.87;3.13;;;;;;;;;;5058865;28;20203;-64
2022/09/16 11:15:10;;;;;;;6.23;2.97;;;;;;;;;;5052515;28;20314;-63
2022/09/16 11:17:43;;;;;;;3.37;2.57;;;;;;;;;;5046545;28;20257;-60
2022/09/16 11:20:32;;;;;;;6.70;2.87;;;;;;;;;;5059504;28;20233;-62
2022/09/16 11:23:03;;;;;;;6.73;2.80;;;;;;;;;;5055104;28;20199;-62
2022/09/16 11:25:38;;;;;;;3.17;2.97;;;;;;;;;;5054680;28;20248;-61
2022/09/16 11:28:15;;;;;;;5.30;2.87;;;;;;;;;;5057874;28;20199;-61
2022/09/16 11:30:51;;;;;;;3.70;3.40;;;;;;;;;;5063663;28;20196;-63
2022/09/16 11:33:24;;;;;;;4.57;2.90;;;;;;;;;;5051380;28;20257;-62
2022/09/16 11:36:18;;;;;;;3.97;3.37;;;;;;;;;;5054256;28;20299;-61
2022/09/16 11:38:50;;;;;;;6.23;3.40;;;;;;;;;;5006820;28;20269;-62
2022/09/16 11:41:21;;;;;;;3.97;2.97;;;;;;;;;;5057691;28;20239;-62
2022/09/16 11:44:05;;;;;;;3.00;2.70;;;;;;;;;;5048136;28;20306;-62
2022/09/16 11:46:40;;;;;;;3.90;2.73;;;;;;;;;;5058403;28;20289;-62
2022/09/16 11:49:17;;;;;;;6.00;3.37;;;;;;;;;;5050046;28;20641;-61
2022/09/16 11:51:54;;;;;;;4.90;2.87;;;;;;;;;;5056217;28;20282;-61
2022/09/16 11:54:32;;;;;;;3.20;2.90;;;;;;;;;;5058118;28;20733;-61
2022/09/16 11:57:02;;;;;;;5.20;3.00;;;;;;;;;;5045417;28;20285;-61
2022/09/16 11:59:32;;;;;;;5.03;3.40;;;;;;;;;;5058588;28;20683;-61
2022/09/16 12:02:07;;;;;;;3.97;2.90;;;;;;;;;;5052293;28;20239;-60
2022/09/16 12:04:39;;;;;;;5.70;3.10;;;;;;;;;;5053304;28;20591;-61
2022/09/16 12:07:11;;;;;;;6.20;3.27;;;;;;;;;;5049064;28;20293;-61
2022/09/16 12:09:48;;;;;;;7.00;3.30;;;;;;;;;;5053833;28;20199;-61
2022/09/16 12:12:17;;;;;;;3.40;2.93;;;;;;;;;;5052141;28;20295;-61
2022/09/16 12:14:49;;;;;;;4.93;2.97;;;;;;;;;;5051816;28;20216;-60
2022/09/16 12:17:21;;;;;;;6.50;3.03;;;;;;;;;;5055849;28;20212;-61
2022/09/16 12:19:52;;;;;;;3.90;2.70;;;;;;;;;;5056203;28;20231;-61
2022/09/16 12:22:21;;;;;;;4.53;2.40;;;;;;;;;;5056169;28;20827;-61
2022/09/16 12:24:53;;;;;;;3.57;2.80;;;;;;;;;;5056726;28;20405;-62
2022/09/16 12:27:26;;;;;;;4.17;2.23;;;;;;;;;;5056677;28;20296;-61
2022/09/16 12:29:56;;;;;;;5.90;2.53;;;;;;;;;;5051288;28;20622;-60
2022/09/16 12:32:30;;;;;;;2.97;2.57;;;;;;;;;;5061634;28;20203;-62
2022/09/16 12:35:01;;;;;;;4.90;3.07;;;;;;;;;;5047839;28;20258;-61
2022/09/16 12:37:33;;;;;;;4.97;2.93;;;;;;;;;;5046906;28;20288;-61
2022/09/16 12:40:02;;;;;;;3.03;2.63;;;;;;;;;;5055182;28;20212;-62
2022/09/16 12:42:57;;;;;;;3.23;2.93;;;;;;;;;;5059891;28;20215;-63
2022/09/16 12:45:31;;;;;;;2.67;2.30;;;;;;;;;;5052831;28;20283;-63
2022/09/16 12:48:19;;;;;;;3.10;2.50;;;;;;;;;;5053601;28;20233;-61
2022/09/16 12:50:56;;;;;;;3.63;2.70;;;;;;;;;;5054538;28;20284;-62
2022/09/16 12:53:45;;;;;;;5.17;3.20;;;;;;;;;;5052423;28;20787;-63
2022/09/16 12:56:19;;;;;;;5.30;3.00;;;;;;;;;;5049718;28;20308;-63
2022/09/16 12:59:11;;;;;;;4.23;3.10;;;;;;;;;;5057788;28;20209;-64
2022/09/16 13:01:40;;;;;;;2.77;2.57;;;;;;;;;;5047060;28;20244;-62
2022/09/16 13:04:14;;;;;;;2.90;2.70;;;;;;;;;;5056969;28;20719;-61
2022/09/16 13:06:46;;;;;;;3.70;2.33;;;;;;;;;;5054019;28;20285;-61
2022/09/16 13:09:24;;;;;;;6.23;3.00;;;;;;;;;;5047802;28;20287;-61
2022/09/16 13:11:53;;;;;;;3.07;2.80;;;;;;;;;;5055390;28;20217;-60
2022/09/16 13:14:46;;;;;;;3.90;2.70;;;;;;;;;;5056558;28;20250;-60
2022/09/16 13:17:14;;;;;;;7.23;2.70;;;;;;;;;;5055790;28;20607;-62
2022/09/16 13:19:51;;;;;;;4.60;2.43;;;;;;;;;;5058504;28;20208;-62
2022/09/16 13:22:22;;;;;;;3.13;2.33;;;;;;;;;;5059218;28;20260;-61
2022/09/16 13:24:54;;;;;;;3.23;2.50;;;;;;;;;;5055678;28;20311;-61
2022/09/16 13:27:27;;;;;;;5.40;2.20;;;;;;;;;;5060721;28;20210;-64
2022/09/16 13:30:10;;;;;;;4.87;2.30;;;;;;;;;;5058724;28;20206;-62
2022/09/16 13:32:42;;;;;;;4.70;2.60;;;;;;;;;;5048233;28;20268;-62
2022/09/16 13:35:25;;;;;;;3.93;2.50;;;;;;;;;;5055789;28;20217;-63
2022/09/16 13:37:54;;;;;;;3.93;2.30;;;;;;;;;;5055985;28;20705;-61
2022/09/16 13:40:24;;;;;;;8.23;2.90;;;;;;;;;;5058117;28;20232;-62
2022/09/16 13:43:03;;;;;;;2.73;2.23;;;;;;;;;;5049898;28;20199;-62
2022/09/16 13:45:35;;;;;;;3.27;2.23;;;;;;;;;;5042831;28;20227;-62
2022/09/16 13:48:09;;;;;;;4.20;2.30;;;;;;;;;;5053487;28;20241;-62
2022/09/16 13:50:41;;;;;;;4.87;3.17;;;;;;;;;;5050328;28;20207;-61
2022/09/16 13:53:10;;;;;;;2.30;2.10;;;;;;;;;;5047015;28;20200;-61
2022/09/16 13:55:40;;;;;;;2.27;1.97;;;;;;;;;;5058432;28;20282;-62
2022/09/16 13:58:12;;;;;;;3.83;2.30;;;;;;;;;;5054362;28;20203;-63
2022/09/16 14:00:44;;;;;;;3.37;2.40;;;;;;;;;;5060175;28;20297;-62
2022/09/16 14:03:29;;;;;;;2.77;2.47;;;;;;;;;;5066563;28;20229;-61
2022/09/16 14:06:10;;;;;;;4.27;2.57;;;;;;;;;;5057310;28;20222;-62
2022/09/16 14:08:42;;;;;;;2.90;2.00;;;;;;;;;;5059603;28;20203;-62
2022/09/16 14:11:14;;;;;;;2.30;2.10;;;;;;;;;;5059761;28;20206;-62
2022/09/16 14:13:44;;;;;;;4.17;2.20;;;;;;;;;;5059270;28;20218;-63
2022/09/16 14:16:15;;;;;;;3.53;2.10;;;;;;;;;;5056226;28;20210;-62
2022/09/16 14:18:46;;;;;;;2.37;2.17;;;;;;;;;;5059630;28;20679;-61
2022/09/16 14:21:19;;;;;;;4.73;2.77;;;;;;;;;;5052767;28;20216;-62
2022/09/16 14:23:47;;;;;;;2.57;2.10;;;;;;;;;;5065997;28;20227;-63
2022/09/16 14:26:16;;;;;;;2.33;2.00;;;;;;;;;;5059915;28;20227;-61
2022/09/16 14:28:45;;;;;;;6.10;2.17;;;;;;;;;;5061374;28;20210;-62
2022/09/16 14:31:15;;;;;;;3.00;2.37;;;;;;;;;;5057654;28;20210;-61
2022/09/16 14:33:44;;;;;;;3.47;2.20;;;;;;;;;;5052475;28;20227;-62
2022/09/16 14:36:14;;;;;;;2.60;2.40;;;;;;;;;;5045721;28;20223;-61
2022/09/16 14:38:44;;;;;;;3.17;2.30;;;;;;;;;;5055776;28;20282;-61
2022/09/16 14:41:20;;;;;;;3.40;2.13;;;;;;;;;;5050681;28;20299;-62
2022/09/16 14:43:48;;;;;;;3.50;2.13;;;;;;;;;;5054433;28;20223;-61
2022/09/16 14:46:16;;;;;;;3.53;2.03;;;;;;;;;;5049485;28;20222;-62
2022/09/16 14:48:44;;;;;;;2.97;2.30;;;;;;;;;;5045875;28;20559;-61
2022/09/16 14:51:14;;;;;;;5.93;2.60;;;;;;;;;;5057221;28;20214;-61
2022/09/16 14:53:54;;;;;;;3.07;2.10;;;;;;;;;;5058524;28;20625;-61
2022/09/16 14:56:39;;;;;;;3.10;2.20;;;;;;;;;;5049115;28;20194;-62
2022/09/16 14:59:09;;;;;;;4.43;2.00;;;;;;;;;;5056154;28;20666;-62
2022/09/16 15:01:37;;;;;;;3.30;2.43;;;;;;;;;;5057768;28;20214;-61
2022/09/16 15:04:07;;;;;;;3.83;1.90;;;;;;;;;;5056652;28;20230;-62
2022/09/16 15:06:39;;;;;;;3.47;2.20;;;;;;;;;;5064842;28;20249;-61
2022/09/16 15:09:13;;;;;;;2.93;2.60;;;;;;;;;;5058472;28;20200;-62